createdAt,value
2019-04-20T00:00:00.746Z,11.018677
2019-04-20T00:00:09.816Z,11.018677
2019-04-20T00:00:21.005Z,11.018677
2019-04-20T00:00:37.019Z,11.018677
2019-04-20T00:00:50.677Z,11.018677
2019-04-20T00:00:59.840Z,11.018677
2019-04-20T00:01:16.671Z,11.028748
2019-04-20T00:01:29.163Z,11.05896
2019-04-20T00:01:37.227Z,11.069031
2019-04-20T00:01:48.572Z,11.069031
2019-04-20T00:02:07.113Z,11.069031
2019-04-20T00:02:17.536Z,11.099243
2019-04-20T00:02:27.365Z,11.099243
2019-04-20T00:02:39.881Z,11.129456
2019-04-20T00:02:53.893Z,11.159668
2019-04-20T00:03:05.536Z,11.139526
2019-04-20T00:03:18.036Z,11.139526
2019-04-20T00:03:36.660Z,11.139526
2019-04-20T00:03:45.033Z,11.139526
2019-04-20T00:03:55.571Z,11.169739
2019-04-20T00:04:09.800Z,11.159668
2019-04-20T00:04:24.486Z,11.18988
2019-04-20T00:04:35.357Z,11.18988
2019-04-20T00:04:44.918Z,11.18988
2019-04-20T00:04:56.974Z,11.169739
2019-04-20T00:05:09.375Z,11.169739
2019-04-20T00:05:21.179Z,11.159668
2019-04-20T00:05:33.002Z,11.159668
2019-04-20T00:05:43.982Z,11.169739
2019-04-20T00:05:57.204Z,11.159668
2019-04-20T00:06:09.051Z,11.169739
2019-04-20T00:06:21.469Z,11.169739
2019-04-20T00:06:39.733Z,11.169739
2019-04-20T00:06:50.058Z,11.169739
2019-04-20T00:06:59.167Z,11.18988
2019-04-20T00:07:10.738Z,11.199951
2019-04-20T00:07:26.975Z,11.199951
2019-04-20T00:07:37.554Z,11.199951
2019-04-20T00:07:50.157Z,11.199951
2019-04-20T00:08:08.727Z,11.199951
2019-04-20T00:08:20.007Z,11.199951
2019-04-20T00:08:30.049Z,11.18988
2019-04-20T00:08:42.425Z,11.18988
2019-04-20T00:08:59.678Z,11.18988
2019-04-20T00:09:11.994Z,11.169739
2019-04-20T00:09:24.421Z,11.169739
2019-04-20T00:09:35.235Z,11.159668
2019-04-20T00:09:50.090Z,11.139526
2019-04-20T00:10:05.128Z,11.139526
2019-04-20T00:10:15.474Z,11.139526
2019-04-20T00:10:24.579Z,11.129456
2019-04-20T00:10:45.160Z,11.139526
2019-04-20T00:10:56.831Z,11.129456
2019-04-20T00:11:07.815Z,11.109314
2019-04-20T00:11:20.673Z,11.109314
2019-04-20T00:11:35.295Z,11.109314
2019-04-20T00:11:49.212Z,11.089172
2019-04-20T00:12:01.432Z,11.069031
2019-04-20T00:12:12.577Z,11.05896
2019-04-20T00:12:26.086Z,11.05896
2019-04-20T00:12:42.172Z,11.05896
2019-04-20T00:12:58.108Z,11.028748
2019-04-20T00:13:07.660Z,11.05896
2019-04-20T00:13:21.433Z,11.028748
2019-04-20T00:13:33.050Z,11.018677
2019-04-20T00:13:44.258Z,11.018677
2019-04-20T00:13:54.767Z,11.008606
2019-04-20T00:14:06.998Z,10.978394
2019-04-20T00:14:17.865Z,10.958252
2019-04-20T00:14:29.479Z,10.948181
2019-04-20T00:14:39.508Z,10.917969
2019-04-20T00:14:50.552Z,10.887756
2019-04-20T00:15:02.940Z,10.857544
2019-04-20T00:15:15.528Z,10.857544
2019-04-20T00:15:28.211Z,10.857544
2019-04-20T00:15:40.876Z,10.857544
2019-04-20T00:15:51.726Z,10.837402
2019-04-20T00:16:04.094Z,10.857544
2019-04-20T00:16:16.525Z,10.877686
2019-04-20T00:16:29.299Z,10.877686
2019-04-20T00:16:41.981Z,10.887756
2019-04-20T00:16:54.681Z,10.887756
2019-04-20T00:17:05.651Z,10.907898
2019-04-20T00:17:17.845Z,10.907898
2019-04-20T00:17:30.521Z,10.917969
2019-04-20T00:17:48.519Z,10.93811
2019-04-20T00:17:58.659Z,10.948181
2019-04-20T00:18:08.806Z,10.958252
2019-04-20T00:18:19.570Z,10.978394
2019-04-20T00:18:38.257Z,10.978394
2019-04-20T00:18:48.787Z,10.988464
2019-04-20T00:19:00.581Z,11.008606
2019-04-20T00:19:14.070Z,10.988464
2019-04-20T00:19:31.797Z,11.008606
2019-04-20T00:19:42.138Z,11.028748
2019-04-20T00:19:52.674Z,11.028748
2019-04-20T00:20:09.119Z,11.018677
2019-04-20T00:20:20.412Z,11.05896
2019-04-20T00:20:30.902Z,11.05896
2019-04-20T00:20:40.680Z,11.05896
2019-04-20T00:20:57.406Z,11.028748
2019-04-20T00:21:09.938Z,11.028748
2019-04-20T00:21:18.864Z,11.018677
2019-04-20T00:21:30.823Z,10.988464
2019-04-20T00:21:49.441Z,10.978394
2019-04-20T00:22:00.208Z,10.978394
2019-04-20T00:22:11.767Z,10.958252
2019-04-20T00:22:24.472Z,10.917969
2019-04-20T00:22:40.854Z,10.887756
2019-04-20T00:22:50.176Z,10.877686
2019-04-20T00:22:59.742Z,10.80719
2019-04-20T00:23:19.624Z,10.776978
2019-04-20T00:23:29.186Z,10.766907
2019-04-20T00:23:40.375Z,10.736694
2019-04-20T00:23:51.722Z,10.726624
2019-04-20T00:24:08.806Z,10.706482
2019-04-20T00:24:21.511Z,10.67627
2019-04-20T00:24:32.334Z,10.67627
2019-04-20T00:24:42.613Z,10.646057
2019-04-20T00:24:56.675Z,10.625916
2019-04-20T00:25:12.532Z,10.625916
2019-04-20T00:25:22.155Z,10.595703
2019-04-20T00:25:46.919Z,10.575562
2019-04-20T00:25:54.229Z,10.55542
2019-04-20T00:26:06.660Z,10.525208
2019-04-20T00:26:20.458Z,10.515137
2019-04-20T00:26:41.001Z,10.525208
2019-04-20T00:27:08.330Z,10.505066
2019-04-20T00:27:13.241Z,10.515137
2019-04-20T00:27:25.240Z,10.474854
2019-04-20T00:27:36.880Z,10.474854
2019-04-20T00:27:48.449Z,10.444641
2019-04-20T00:27:59.225Z,10.43457
2019-04-20T00:28:11.686Z,10.4245
2019-04-20T00:28:23.892Z,10.404358
2019-04-20T00:28:35.000Z,10.404358
2019-04-20T00:28:50.671Z,10.404358
2019-04-20T00:29:00.001Z,10.4245
2019-04-20T00:29:17.215Z,10.4245
2019-04-20T00:29:29.091Z,10.43457
2019-04-20T00:29:39.164Z,10.43457
2019-04-20T00:29:54.100Z,10.444641
2019-04-20T00:30:03.740Z,10.444641
2019-04-20T00:30:24.672Z,10.444641
2019-04-20T00:30:31.287Z,10.43457
2019-04-20T00:30:46.529Z,10.4245
2019-04-20T00:30:58.477Z,10.4245
2019-04-20T00:31:09.012Z,10.404358
2019-04-20T00:31:18.724Z,10.374146
2019-04-20T00:31:29.495Z,10.374146
2019-04-20T00:31:45.351Z,10.364075
2019-04-20T00:31:56.452Z,10.343933
2019-04-20T00:32:05.931Z,10.343933
2019-04-20T00:32:17.139Z,10.333862
2019-04-20T00:32:37.296Z,10.333862
2019-04-20T00:32:49.881Z,10.333862
2019-04-20T00:32:58.400Z,10.333862
2019-04-20T00:33:09.271Z,10.323792
2019-04-20T00:33:26.622Z,10.323792
2019-04-20T00:33:39.439Z,10.323792
2019-04-20T00:33:50.323Z,10.323792
2019-04-20T00:34:02.064Z,10.323792
2019-04-20T00:34:13.590Z,10.333862
2019-04-20T00:34:22.774Z,10.333862
2019-04-20T00:34:35.547Z,10.333862
2019-04-20T00:34:45.367Z,10.333862
2019-04-20T00:34:55.854Z,10.343933
2019-04-20T00:35:06.689Z,10.364075
2019-04-20T00:35:18.827Z,10.374146
2019-04-20T00:35:31.356Z,10.364075
2019-04-20T00:35:44.284Z,10.374146
2019-04-20T00:35:56.995Z,10.394287
2019-04-20T00:36:10.034Z,10.394287
2019-04-20T00:36:22.090Z,10.394287
2019-04-20T00:36:34.803Z,10.404358
2019-04-20T00:36:47.427Z,10.43457
2019-04-20T00:37:00.250Z,10.43457
2019-04-20T00:37:12.878Z,10.444641
2019-04-20T00:37:23.800Z,10.464783
2019-04-20T00:37:35.977Z,10.464783
2019-04-20T00:37:48.703Z,10.515137
2019-04-20T00:38:01.230Z,10.515137
2019-04-20T00:38:13.948Z,10.55542
2019-04-20T00:38:26.807Z,10.585632
2019-04-20T00:38:42.466Z,10.595703
2019-04-20T00:38:55.022Z,10.615845
2019-04-20T00:39:07.519Z,10.625916
2019-04-20T00:39:18.802Z,10.615845
2019-04-20T00:39:29.911Z,10.646057
2019-04-20T00:39:42.700Z,10.646057
2019-04-20T00:39:53.563Z,10.646057
2019-04-20T00:40:05.726Z,10.656128
2019-04-20T00:40:19.414Z,10.646057
2019-04-20T00:40:30.610Z,10.656128
2019-04-20T00:40:43.319Z,10.656128
2019-04-20T00:40:59.723Z,10.67627
2019-04-20T00:41:10.790Z,10.656128
2019-04-20T00:41:22.146Z,10.656128
2019-04-20T00:41:40.705Z,10.656128
2019-04-20T00:41:51.353Z,10.646057
2019-04-20T00:42:04.147Z,10.646057
2019-04-20T00:42:14.460Z,10.625916
2019-04-20T00:42:32.746Z,10.615845
2019-04-20T00:42:44.090Z,10.615845
2019-04-20T00:42:53.627Z,10.625916
2019-04-20T00:43:03.010Z,10.615845
2019-04-20T00:43:20.821Z,10.615845
2019-04-20T00:43:32.763Z,10.595703
2019-04-20T00:43:42.464Z,10.595703
2019-04-20T00:43:57.661Z,10.595703
2019-04-20T00:44:12.923Z,10.595703
2019-04-20T00:44:25.028Z,10.585632
2019-04-20T00:44:35.721Z,10.575562
2019-04-20T00:44:46.783Z,10.575562
2019-04-20T00:45:05.529Z,10.575562
2019-04-20T00:45:18.119Z,10.545349
2019-04-20T00:45:28.669Z,10.545349
2019-04-20T00:45:44.966Z,10.525208
2019-04-20T00:45:53.535Z,10.525208
2019-04-20T00:46:07.835Z,10.525208
2019-04-20T00:46:21.742Z,10.515137
2019-04-20T00:46:32.806Z,10.515137
2019-04-20T00:46:50.846Z,10.515137
2019-04-20T00:47:04.195Z,10.505066
2019-04-20T00:47:15.390Z,10.505066
2019-04-20T00:47:30.295Z,10.474854
2019-04-20T00:47:41.761Z,10.474854
2019-04-20T00:47:50.758Z,10.474854
2019-04-20T00:48:03.163Z,10.464783
2019-04-20T00:48:22.295Z,10.474854
2019-04-20T00:48:33.580Z,10.464783
2019-04-20T00:48:44.997Z,10.464783
2019-04-20T00:48:55.704Z,10.464783
2019-04-20T00:49:17.090Z,10.444641
2019-04-20T00:49:30.298Z,10.43457
2019-04-20T00:49:38.643Z,10.444641
2019-04-20T00:49:52.051Z,10.464783
2019-04-20T00:50:05.374Z,10.464783
2019-04-20T00:50:24.379Z,10.444641
2019-04-20T00:50:34.028Z,10.43457
2019-04-20T00:50:44.268Z,10.444641
2019-04-20T00:50:55.132Z,10.444641
2019-04-20T00:51:16.379Z,10.464783
2019-04-20T00:51:30.384Z,10.444641
2019-04-20T00:51:34.764Z,10.444641
2019-04-20T00:51:50.554Z,10.444641
2019-04-20T00:52:12.331Z,10.444641
2019-04-20T00:52:39.824Z,10.43457
2019-04-20T00:52:39.827Z,10.464783
2019-04-20T00:52:53.870Z,10.444641
2019-04-20T00:53:03.005Z,10.444641
2019-04-20T00:53:13.204Z,10.444641
2019-04-20T00:53:25.680Z,10.464783
2019-04-20T00:53:36.151Z,10.464783
2019-04-20T00:53:46.691Z,10.444641
2019-04-20T00:53:57.551Z,10.444641
2019-04-20T00:54:09.413Z,10.464783
2019-04-20T00:54:22.206Z,10.464783
2019-04-20T00:54:34.875Z,10.444641
2019-04-20T00:54:47.307Z,10.464783
2019-04-20T00:55:00.060Z,10.444641
2019-04-20T00:55:11.270Z,10.464783
2019-04-20T00:55:25.241Z,10.444641
2019-04-20T00:55:38.019Z,10.444641
2019-04-20T00:55:50.767Z,10.444641
2019-04-20T00:56:03.392Z,10.464783
2019-04-20T00:56:16.120Z,10.444641
2019-04-20T00:56:27.126Z,10.43457
2019-04-20T00:56:40.977Z,10.43457
2019-04-20T00:57:05.666Z,10.4245
2019-04-20T00:57:20.064Z,10.4245
2019-04-20T00:57:29.039Z,10.4245
2019-04-20T00:57:41.117Z,10.4245
2019-04-20T00:57:49.942Z,10.404358
2019-04-20T00:58:05.482Z,10.4245
2019-04-20T00:58:18.740Z,10.404358
2019-04-20T00:58:28.720Z,10.404358
2019-04-20T00:58:48.961Z,10.394287
2019-04-20T00:58:55.678Z,10.394287
2019-04-20T00:59:12.857Z,10.394287
2019-04-20T00:59:23.049Z,10.374146
2019-04-20T00:59:39.857Z,10.364075
2019-04-20T00:59:58.886Z,10.364075
2019-04-20T01:00:10.823Z,10.364075
2019-04-20T01:00:21.093Z,10.343933
2019-04-20T01:00:30.897Z,10.343933
2019-04-20T01:00:45.326Z,10.343933
2019-04-20T01:01:06.563Z,10.333862
2019-04-20T01:01:12.622Z,10.323792
2019-04-20T01:01:30.653Z,10.30365
2019-04-20T01:01:42.111Z,10.30365
2019-04-20T01:01:51.721Z,10.323792
2019-04-20T01:02:03.323Z,10.30365
2019-04-20T01:02:16.731Z,10.323792
2019-04-20T01:02:25.563Z,10.30365
2019-04-20T01:02:35.963Z,10.323792
2019-04-20T01:02:50.376Z,10.323792
2019-04-20T01:03:04.168Z,10.333862
2019-04-20T01:03:20.623Z,10.323792
2019-04-20T01:03:33.696Z,10.323792
2019-04-20T01:03:42.197Z,10.333862
2019-04-20T01:03:54.683Z,10.333862
2019-04-20T01:04:14.673Z,10.333862
2019-04-20T01:04:23.668Z,10.333862
2019-04-20T01:04:40.558Z,10.333862
2019-04-20T01:04:53.482Z,10.323792
2019-04-20T01:05:03.827Z,10.30365
2019-04-20T01:05:17.779Z,10.323792
2019-04-20T01:05:22.573Z,10.30365
2019-04-20T01:05:46.188Z,10.283508
2019-04-20T01:05:58.010Z,10.263367
2019-04-20T01:06:10.723Z,10.263367
2019-04-20T01:06:21.973Z,10.253296
2019-04-20T01:06:31.354Z,10.253296
2019-04-20T01:06:40.472Z,10.243225
2019-04-20T01:06:53.322Z,10.243225
2019-04-20T01:07:04.491Z,10.253296
2019-04-20T01:07:20.141Z,10.243225
2019-04-20T01:07:29.651Z,10.223083
2019-04-20T01:07:40.719Z,10.223083
2019-04-20T01:07:50.237Z,10.223083
2019-04-20T01:08:01.885Z,10.213013
2019-04-20T01:08:11.283Z,10.192871
2019-04-20T01:08:23.309Z,10.192871
2019-04-20T01:08:35.944Z,10.1828
2019-04-20T01:08:48.463Z,10.1828
2019-04-20T01:09:01.306Z,10.152588
2019-04-20T01:09:14.061Z,10.152588
2019-04-20T01:09:25.014Z,10.142517
2019-04-20T01:09:37.056Z,10.122375
2019-04-20T01:09:49.867Z,10.122375
2019-04-20T01:10:02.663Z,10.092163
2019-04-20T01:10:15.169Z,10.092163
2019-04-20T01:10:28.119Z,10.061951
2019-04-20T01:10:46.099Z,10.031738
2019-04-20T01:10:56.398Z,10.001526
2019-04-20T01:11:06.079Z,9.971313
2019-04-20T01:11:24.386Z,9.941101
2019-04-20T01:11:36.517Z,9.910889
2019-04-20T01:11:46.702Z,9.880676
2019-04-20T01:11:56.578Z,9.880676
2019-04-20T01:12:12.412Z,9.880676
2019-04-20T01:12:26.021Z,9.880676
2019-04-20T01:12:36.533Z,9.860535
2019-04-20T01:12:47.461Z,9.860535
2019-04-20T01:13:06.482Z,9.860535
2019-04-20T01:13:17.272Z,9.880676
2019-04-20T01:13:26.807Z,9.880676
2019-04-20T01:13:45.699Z,9.860535
2019-04-20T01:13:55.348Z,9.860535
2019-04-20T01:14:07.758Z,9.850464
2019-04-20T01:14:19.049Z,9.850464
2019-04-20T01:14:34.734Z,9.850464
2019-04-20T01:14:48.381Z,9.850464
2019-04-20T01:14:59.069Z,9.850464
2019-04-20T01:15:11.076Z,9.820251
2019-04-20T01:15:27.914Z,9.820251
2019-04-20T01:15:42.646Z,9.820251
2019-04-20T01:15:51.404Z,9.810181
2019-04-20T01:16:06.126Z,9.790039
2019-04-20T01:16:23.936Z,9.779968
2019-04-20T01:16:35.267Z,9.759827
2019-04-20T01:16:43.866Z,9.749756
2019-04-20T01:16:56.821Z,9.709473
2019-04-20T01:17:11.558Z,9.709473
2019-04-20T01:17:14.550Z,9.709473
2019-04-20T01:17:26.397Z,9.709473
2019-04-20T01:17:41.445Z,9.729614
2019-04-20T01:17:51.010Z,9.729614
2019-04-20T01:18:02.846Z,9.729614
2019-04-20T01:18:15.212Z,9.749756
2019-04-20T01:18:26.512Z,9.729614
2019-04-20T01:18:38.399Z,9.729614
2019-04-20T01:18:50.222Z,9.709473
2019-04-20T01:19:02.108Z,9.709473
2019-04-20T01:19:15.775Z,9.709473
2019-04-20T01:19:26.875Z,9.699402
2019-04-20T01:19:38.702Z,9.699402
2019-04-20T01:19:52.652Z,9.67926
2019-04-20T01:20:03.345Z,9.699402
2019-04-20T01:20:15.180Z,9.67926
2019-04-20T01:20:28.020Z,9.67926
2019-04-20T01:20:41.014Z,9.669189
2019-04-20T01:20:53.611Z,9.659119
2019-04-20T01:21:12.788Z,9.638977
2019-04-20T01:21:22.920Z,9.638977
2019-04-20T01:21:33.149Z,9.659119
2019-04-20T01:21:49.732Z,9.638977
2019-04-20T01:22:02.222Z,9.628906
2019-04-20T01:22:13.461Z,9.608765
2019-04-20T01:22:25.358Z,9.638977
2019-04-20T01:22:40.055Z,9.628906
2019-04-20T01:22:54.482Z,9.638977
2019-04-20T01:23:07.331Z,9.638977
2019-04-20T01:23:17.163Z,9.638977
2019-04-20T01:23:35.355Z,9.659119
2019-04-20T01:23:45.782Z,9.659119
2019-04-20T01:23:56.499Z,9.638977
2019-04-20T01:24:06.607Z,9.628906
2019-04-20T01:24:23.639Z,9.628906
2019-04-20T01:24:35.279Z,9.628906
2019-04-20T01:24:45.303Z,9.628906
2019-04-20T01:25:00.101Z,9.628906
2019-04-20T01:25:16.620Z,9.598694
2019-04-20T01:25:26.893Z,9.598694
2019-04-20T01:25:37.576Z,9.608765
2019-04-20T01:25:52.030Z,9.598694
2019-04-20T01:26:05.126Z,9.628906
2019-04-20T01:26:16.210Z,9.638977
2019-04-20T01:26:26.399Z,9.659119
2019-04-20T01:26:43.287Z,9.67926
2019-04-20T01:26:55.822Z,9.699402
2019-04-20T01:27:05.577Z,9.709473
2019-04-20T01:27:27.066Z,9.709473
2019-04-20T01:27:41.971Z,9.749756
2019-04-20T01:28:01.736Z,9.759827
2019-04-20T01:28:17.452Z,9.790039
2019-04-20T01:28:24.116Z,9.810181
2019-04-20T01:28:37.155Z,9.810181
2019-04-20T01:28:46.214Z,9.830322
2019-04-20T01:28:58.148Z,9.830322
2019-04-20T01:29:11.958Z,9.860535
2019-04-20T01:29:21.401Z,9.880676
2019-04-20T01:29:32.216Z,9.890747
2019-04-20T01:29:44.232Z,9.910889
2019-04-20T01:29:55.602Z,9.941101
2019-04-20T01:30:12.889Z,9.961243
2019-04-20T01:30:24.564Z,9.961243
2019-04-20T01:30:35.704Z,9.991455
2019-04-20T01:30:46.740Z,10.001526
2019-04-20T01:31:04.957Z,10.031738
2019-04-20T01:31:18.322Z,10.041809
2019-04-20T01:31:29.192Z,10.072021
2019-04-20T01:31:38.080Z,10.072021
2019-04-20T01:32:00.626Z,10.102234
2019-04-20T01:32:10.306Z,10.102234
2019-04-20T01:32:20.752Z,10.122375
2019-04-20T01:32:34.138Z,10.142517
2019-04-20T01:32:54.922Z,10.152588
2019-04-20T01:33:03.334Z,10.142517
2019-04-20T01:33:15.874Z,10.152588
2019-04-20T01:33:27.762Z,10.152588
2019-04-20T01:33:39.958Z,10.172729
2019-04-20T01:33:49.080Z,10.172729
2019-04-20T01:34:02.916Z,10.152588
2019-04-20T01:34:16.132Z,10.172729
2019-04-20T01:34:30.904Z,10.1828
2019-04-20T01:34:41.273Z,10.1828
2019-04-20T01:34:54.994Z,10.192871
2019-04-20T01:35:07.536Z,10.192871
2019-04-20T01:35:24.568Z,10.192871
2019-04-20T01:35:39.021Z,10.192871
2019-04-20T01:35:48.709Z,10.213013
2019-04-20T01:36:01.762Z,10.213013
2019-04-20T01:36:19.208Z,10.213013
2019-04-20T01:36:30.609Z,10.192871
2019-04-20T01:36:45.582Z,10.192871
2019-04-20T01:36:55.487Z,10.1828
2019-04-20T01:37:09.161Z,10.192871
2019-04-20T01:37:20.718Z,10.1828
2019-04-20T01:37:29.126Z,10.1828
2019-04-20T01:37:42.941Z,10.152588
2019-04-20T01:38:00.051Z,10.152588
2019-04-20T01:38:11.157Z,10.122375
2019-04-20T01:38:25.915Z,10.102234
2019-04-20T01:38:34.059Z,10.092163
2019-04-20T01:38:46.858Z,10.092163
2019-04-20T01:39:02.582Z,10.041809
2019-04-20T01:39:13.460Z,10.011597
2019-04-20T01:39:23.602Z,10.011597
2019-04-20T01:39:34.200Z,10.001526
2019-04-20T01:39:44.187Z,10.001526
2019-04-20T01:39:55.089Z,9.991455
2019-04-20T01:40:05.892Z,9.991455
2019-04-20T01:40:16.958Z,10.001526
2019-04-20T01:40:27.837Z,10.011597
2019-04-20T01:40:40.204Z,10.031738
2019-04-20T01:40:52.679Z,10.031738
2019-04-20T01:41:05.399Z,10.011597
2019-04-20T01:41:18.213Z,10.031738
2019-04-20T01:41:28.891Z,10.041809
2019-04-20T01:41:41.324Z,10.061951
2019-04-20T01:41:52.565Z,10.072021
2019-04-20T01:42:06.465Z,10.072021
2019-04-20T01:42:19.173Z,10.092163
2019-04-20T01:42:32.070Z,10.092163
2019-04-20T01:42:44.540Z,10.102234
2019-04-20T01:42:57.272Z,10.102234
2019-04-20T01:43:08.413Z,10.102234
2019-04-20T01:43:22.568Z,10.102234
2019-04-20T01:43:35.234Z,10.102234
2019-04-20T01:43:47.799Z,10.122375
2019-04-20T01:44:00.482Z,10.102234
2019-04-20T01:44:13.414Z,10.142517
2019-04-20T01:44:31.563Z,10.122375
2019-04-20T01:44:42.336Z,10.122375
2019-04-20T01:44:52.466Z,10.142517
2019-04-20T01:45:10.006Z,10.142517
2019-04-20T01:45:22.314Z,10.142517
2019-04-20T01:45:34.589Z,10.152588
2019-04-20T01:45:43.725Z,10.142517
2019-04-20T01:46:01.038Z,10.142517
2019-04-20T01:46:13.669Z,10.152588
2019-04-20T01:46:23.399Z,10.172729
2019-04-20T01:46:34.682Z,10.152588
2019-04-20T01:46:51.774Z,10.152588
2019-04-20T01:47:02.892Z,10.172729
2019-04-20T01:47:13.277Z,10.152588
2019-04-20T01:47:31.838Z,10.172729
2019-04-20T01:47:43.876Z,10.142517
2019-04-20T01:47:54.049Z,10.122375
2019-04-20T01:48:04.410Z,10.092163
2019-04-20T01:48:21.703Z,10.061951
2019-04-20T01:48:33.304Z,10.041809
2019-04-20T01:48:41.876Z,10.031738
2019-04-20T01:48:53.046Z,10.001526
2019-04-20T01:49:11.366Z,10.001526
2019-04-20T01:49:22.696Z,9.991455
2019-04-20T01:49:33.867Z,9.971313
2019-04-20T01:49:47.470Z,9.961243
2019-04-20T01:50:03.254Z,9.971313
2019-04-20T01:50:14.034Z,9.93103
2019-04-20T01:50:27.559Z,9.910889
2019-04-20T01:50:38.034Z,9.910889
2019-04-20T01:50:59.209Z,9.910889
2019-04-20T01:51:07.056Z,9.890747
2019-04-20T01:51:21.096Z,9.890747
2019-04-20T01:51:32.308Z,9.890747
2019-04-20T01:51:52.335Z,9.860535
2019-04-20T01:52:03.664Z,9.860535
2019-04-20T01:52:12.584Z,9.860535
2019-04-20T01:52:22.874Z,9.850464
2019-04-20T01:52:42.434Z,9.850464
2019-04-20T01:52:53.738Z,9.830322
2019-04-20T01:53:05.465Z,9.830322
2019-04-20T01:53:16.302Z,9.830322
2019-04-20T01:53:38.354Z,9.810181
2019-04-20T01:53:56.454Z,9.820251
2019-04-20T01:53:59.843Z,9.810181
2019-04-20T01:54:15.709Z,9.810181
2019-04-20T01:54:25.743Z,9.820251
2019-04-20T01:54:45.156Z,9.810181
2019-04-20T01:54:56.191Z,9.810181
2019-04-20T01:55:11.252Z,9.810181
2019-04-20T01:55:22.594Z,9.810181
2019-04-20T01:55:32.761Z,9.810181
2019-04-20T01:55:54.385Z,9.820251
2019-04-20T01:56:00.965Z,9.810181
2019-04-20T01:56:12.338Z,9.810181
2019-04-20T01:56:21.592Z,9.810181
2019-04-20T01:56:34.643Z,9.810181
2019-04-20T01:56:43.304Z,9.790039
2019-04-20T01:56:57.915Z,9.779968
2019-04-20T01:57:06.869Z,9.790039
2019-04-20T01:57:18.829Z,9.790039
2019-04-20T01:57:32.695Z,9.779968
2019-04-20T01:57:54.422Z,9.779968
2019-04-20T01:58:04.718Z,9.759827
2019-04-20T01:58:23.547Z,9.749756
2019-04-20T01:58:34.602Z,9.759827
2019-04-20T01:58:45.997Z,9.759827
2019-04-20T01:58:58.039Z,9.759827
2019-04-20T01:59:10.034Z,9.779968
2019-04-20T01:59:19.396Z,9.779968
2019-04-20T01:59:31.410Z,9.779968
2019-04-20T01:59:43.020Z,9.790039
2019-04-20T01:59:57.058Z,9.810181
2019-04-20T02:00:05.921Z,9.820251
2019-04-20T02:00:18.095Z,9.850464
2019-04-20T02:00:29.580Z,9.860535
2019-04-20T02:00:39.889Z,9.880676
2019-04-20T02:00:52.956Z,9.880676
2019-04-20T02:01:09.623Z,9.910889
2019-04-20T02:01:20.936Z,9.93103
2019-04-20T02:01:31.393Z,9.941101
2019-04-20T02:01:42.743Z,9.971313
2019-04-20T02:01:59.013Z,9.991455
2019-04-20T02:02:11.504Z,9.991455
2019-04-20T02:02:22.500Z,10.011597
2019-04-20T02:02:35.192Z,10.011597
2019-04-20T02:02:50.042Z,10.031738
2019-04-20T02:03:01.331Z,10.031738
2019-04-20T02:03:11.427Z,10.031738
2019-04-20T02:03:30.987Z,10.041809
2019-04-20T02:03:40.131Z,10.041809
2019-04-20T02:03:51.856Z,10.041809
2019-04-20T02:04:03.194Z,10.031738
2019-04-20T02:04:20.040Z,10.041809
2019-04-20T02:04:32.920Z,10.031738
2019-04-20T02:04:43.856Z,10.041809
2019-04-20T02:04:55.097Z,10.041809
2019-04-20T02:05:12.627Z,10.061951
2019-04-20T02:05:24.591Z,10.072021
2019-04-20T02:05:35.196Z,10.072021
2019-04-20T02:05:51.158Z,10.072021
2019-04-20T02:06:03.235Z,10.092163
2019-04-20T02:06:13.445Z,10.092163
2019-04-20T02:06:25.031Z,10.092163
2019-04-20T02:06:39.763Z,10.092163
2019-04-20T02:06:53.186Z,10.092163
2019-04-20T02:07:03.252Z,10.072021
2019-04-20T02:07:13.616Z,10.092163
2019-04-20T02:07:33.488Z,10.102234
2019-04-20T02:07:43.538Z,10.092163
2019-04-20T02:07:54.130Z,10.092163
2019-04-20T02:08:06.694Z,10.072021
2019-04-20T02:08:19.560Z,10.061951
2019-04-20T02:08:29.819Z,10.072021
2019-04-20T02:08:42.122Z,10.061951
2019-04-20T02:08:59.064Z,10.041809
2019-04-20T02:09:13.349Z,10.031738
2019-04-20T02:09:24.000Z,10.031738
2019-04-20T02:09:33.956Z,10.031738
2019-04-20T02:09:50.274Z,10.011597
2019-04-20T02:10:02.796Z,10.001526
2019-04-20T02:10:13.715Z,9.991455
2019-04-20T02:10:31.768Z,9.961243
2019-04-20T02:10:44.017Z,9.941101
2019-04-20T02:10:54.259Z,9.941101
2019-04-20T02:11:04.292Z,9.93103
2019-04-20T02:11:21.783Z,9.93103
2019-04-20T02:11:34.227Z,9.910889
2019-04-20T02:11:43.492Z,9.910889
2019-04-20T02:11:54.069Z,9.880676
2019-04-20T02:12:11.930Z,9.890747
2019-04-20T02:12:24.144Z,9.880676
2019-04-20T02:12:35.648Z,9.880676
2019-04-20T02:12:50.230Z,9.880676
2019-04-20T02:13:00.107Z,9.880676
2019-04-20T02:13:11.135Z,9.880676
2019-04-20T02:13:26.023Z,9.890747
2019-04-20T02:13:42.091Z,9.880676
2019-04-20T02:13:53.278Z,9.910889
2019-04-20T02:14:03.558Z,9.890747
2019-04-20T02:14:14.226Z,9.890747
2019-04-20T02:14:34.114Z,9.910889
2019-04-20T02:14:45.253Z,9.880676
2019-04-20T02:14:55.990Z,9.890747
2019-04-20T02:15:07.249Z,9.890747
2019-04-20T02:15:22.878Z,9.910889
2019-04-20T02:15:37.622Z,9.910889
2019-04-20T02:15:48.366Z,9.910889
2019-04-20T02:15:58.996Z,9.910889
2019-04-20T02:16:15.662Z,9.910889
2019-04-20T02:16:28.452Z,9.93103
2019-04-20T02:16:40.553Z,9.910889
2019-04-20T02:16:51.289Z,9.890747
2019-04-20T02:17:09.441Z,9.890747
2019-04-20T02:17:21.189Z,9.880676
2019-04-20T02:17:31.787Z,9.860535
2019-04-20T02:17:44.007Z,9.850464
2019-04-20T02:18:03.015Z,9.820251
2019-04-20T02:18:17.412Z,9.810181
2019-04-20T02:18:29.875Z,9.790039
2019-04-20T02:18:39.858Z,9.749756
2019-04-20T02:18:58.412Z,9.729614
2019-04-20T02:19:08.914Z,9.709473
2019-04-20T02:19:22.801Z,9.67926
2019-04-20T02:19:30.009Z,9.67926
2019-04-20T02:19:46.127Z,9.669189
2019-04-20T02:20:04.410Z,9.659119
2019-04-20T02:20:15.435Z,9.659119
2019-04-20T02:20:32.877Z,9.638977
2019-04-20T02:20:42.696Z,9.628906
2019-04-20T02:20:54.095Z,9.608765
2019-04-20T02:21:09.235Z,9.598694
2019-04-20T02:21:19.487Z,9.598694
2019-04-20T02:21:33.387Z,9.608765
2019-04-20T02:21:46.518Z,9.608765
2019-04-20T02:21:55.242Z,9.598694
2019-04-20T02:22:06.078Z,9.598694
2019-04-20T02:22:19.644Z,9.598694
2019-04-20T02:22:36.987Z,9.578552
2019-04-20T02:22:46.150Z,9.578552
2019-04-20T02:22:58.718Z,9.598694
2019-04-20T02:23:10.405Z,9.568481
2019-04-20T02:23:24.782Z,9.568481
2019-04-20T02:23:33.483Z,9.568481
2019-04-20T02:23:46.139Z,9.568481
2019-04-20T02:23:54.549Z,9.578552
2019-04-20T02:24:05.692Z,9.578552
2019-04-20T02:24:16.372Z,9.578552
2019-04-20T02:24:27.797Z,9.578552
2019-04-20T02:24:40.476Z,9.578552
2019-04-20T02:24:53.004Z,9.578552
2019-04-20T02:25:05.822Z,9.568481
2019-04-20T02:25:18.620Z,9.568481
2019-04-20T02:25:31.110Z,9.568481
2019-04-20T02:25:43.978Z,9.568481
2019-04-20T02:25:54.970Z,9.578552
2019-04-20T02:26:07.116Z,9.578552
2019-04-20T02:26:19.850Z,9.558411
2019-04-20T02:26:32.307Z,9.558411
2019-04-20T02:26:45.082Z,9.558411